Thompson Falls, Montana
Current Conditions -  °F | °C
As of 12:53 PM on Thursday 29 Jan 2015 (Local Time) from KMLP Reporting Station
Clear Clear  
Wind Chill: 35°   Ceiling: Unl
Heat Index: 35°   Visibility: 10mi
Dew Point: 14°   Wind: 3mph
Humidity: 42%   Direction: 290°WNW
Pressure: 30.31"   Gusts: NA
Location:  47.6°N, 115.34°W
Report Text: KMLP 291953Z AUTO 29003KT 10SM CLR 02/M10 A3031 RMK AO2 SLP244 T00171100
Loading
Personal Weather Stations






























Interactive Weather Map New forecast layout! Learn more

10-Day Weather Forecast

Advertisements
Track Severe Weather on mobile